KOEO

L O Simenstad Municipal Airport

Osceola, Wisconsin, USA
METAR KOEO 201235Z AUTO 00000KT 7SM CLR M07/M07 A2985 RMK AO2 T10701070
Observed Flight Rules
Jan-20 @ 12:35 UTC (26 minutes ago) Visual Flight Rules
Wind Visibility Clouds
Calm 7 miles
  • Clear skies
Temperatures Readings
Current -7°C / 19°F
Dewpoint -7°C / 19°F
Humidity 100%
Altimeter 29.85" Hg
Pressure 1011 hPa
Elevation 275
METAR KOEO 201235Z AUTO 00000KT 7SM CLR M07/M07 A2985 RMK AO2 T10701070
Observed Flight Rules
Jan-20 @ 12:35 UTC
(26 minutes ago)
VFR
Wind Visibility
Calm 7 miles
Clouds
  • Clear skies
Temperature Dewpoint
-7°C / 19°F -7°C / 19°F
Humidity Altimeter Pressure
100% 29.85" Hg 1011 hPa